Startpagina
METAR-TAF:

METAR-TAF

Vliegvelden :

Aérodrome de Pontoise-Cormeilles-en-Vexin

Pontoise, Frankrijk

breedte: 49-05-48N, lengte: 002-02-27E, hoogte: 99 m

Actueel weer

Dit bericht is 28 minuten geleden gemaakt, om 19:00 UTC
Wind 7 kt uit het zuidoosten, variërend tussen het oosten en het zuiden
Temperatuur 20°C
Vochtigheid 88%
Druk 1013 hPa
Zicht: 9000 m
lichte regen

METAR: LFPT 191900Z AUTO 14007KT 090V180 9000 -RA FEW034/// BKN052/// BKN072/// ///CB 20/18 Q1013

Tijdstip: 21:28 (19:28 UTC)


TAF: ontbreekt

Waarnemingen en weersverwachtingen van meer dan 4000 vliegvelden (METAR en TAF).

De beschikbare stations zijn de gele en rode punten op de kaart.

Ga met uw muis naar het station om de naam te zien.

Klik dan om waarnemingen en weersverwachtingen te zien.

kaart wijzigen: klik op de groene knoppen met een zwart kruis om in te zoomen, op de groene knop met een streepje om uit te zoomen of op de groene pijlen voor aangrenzende kaarten.


METAR-TAF: